• Join FlightAware (Why Join?)
  • Login
  • US Flag 
01:29AM EDT


 

Airport Tracker/Info


-or-


 

Live Flight TrackerFlight Track Log ✈ RPA3228 ✈ 13-May-2013 ✈ KDSM - KDCA

Flight Track Log - Related Links

Times and Time Zones

All times are in EDT time to prevent confusion due to time zone crossing. See the RPA3228 flight status page for this flight to view local times or setup timezone preferences in your user account.

Time Position Orientation Groundspeed Altitude Reporting Facility
EDT Latitude Longitude Course Direction KTS MPH feet Rate Location/Type
07:09AM 41.5289 -93.6706 86° East 147 169 1,600  Level Minneapolis Center
07:09AM 41.5117 -93.7000 232° Southwest 162 186 2,700 2,220 Climbing Minneapolis Center
07:10AM 41.4619 -93.7100 189° South 218 251 5,200 2,640 Climbing Minneapolis Center
07:11AM 41.4407 -93.3436 82° East  Level FlightAware Approximate
07:11AM 41.4503 -93.6933 133° Southeast 236 272 6,100  Level Minneapolis Center
07:12AM 41.4500 -93.2013 90° East  Level FlightAware Approximate
07:12AM 41.4556 -93.6028 86° East 247 284 8,400  Level Minneapolis Center
07:13AM 41.4500 -93.0582 90° East  Level FlightAware Approximate
07:13AM 41.4597 -93.4836 87° East 298 343 10,600  Level Minneapolis Center
07:14AM 41.4549 -92.9153 86° East  Level FlightAware Approximate
07:14AM 41.4647 -93.3611 87° East 329 379 12,800  Level Minneapolis Center
07:15AM 41.4700 -93.2347 87° East 341 392 15,000 2,040 Climbing Minneapolis Center
07:16AM 41.4744 -93.1011 87° East 359 413 17,000 1,680 Climbing Minneapolis Center
07:17AM 41.4781 -92.9806 88° East 363 418 18,500 1,560 Climbing Minneapolis Center
07:18AM 41.4831 -92.8439 87° East 369 425 20,200 1,680 Climbing Minneapolis Center
07:19AM 41.4875 -92.6994 88° East 381 438 21,900 1,680 Climbing Minneapolis Center
07:20AM 41.4922 -92.5564 87° East 386 444 23,600 1,560 Climbing Minneapolis Center
07:20AM 41.4953 -92.4836 87° East 390 449 24,200 1,260 Climbing Chicago Center
07:21AM 41.4989 -92.3369 88° East 399 459 25,500 1,260 Climbing Chicago Center
07:22AM 41.5044 -92.1872 87° East 406 467 26,800 1,500 Climbing Chicago Center
07:23AM 41.5089 -92.0036 88° East 416 479 28,600 1,440 Climbing Chicago Center
07:24AM 41.5125 -91.8514 88° East 416 479 29,800 1,140 Climbing Chicago Center
07:25AM 41.5164 -91.6944 88° East 424 488 31,000 1,260 Climbing Chicago Center
07:26AM 41.5208 -91.5383 88° East 425 489 32,400 1,260 Climbing Chicago Center
07:27AM 41.5236 -91.3833 89° East 424 488 33,700 1,140 Climbing Chicago Center
07:28AM 41.5264 -91.2325 89° East 414 476 34,800 600 Climbing Chicago Center
07:29AM 41.5300 -91.0511 88° East 413 475 35,000 60 Climbing Chicago Center
07:30AM 41.5333 -90.9006 88° East 410 472 35,000  Level Chicago Center
07:31AM 41.5350 -90.7522 89° East 406 467 35,000  Level Chicago Center
07:32AM 41.5367 -90.6072 89° East 408 470 35,000  Level Chicago Center
07:33AM 41.5394 -90.4561 89° East 407 468 35,000  Level Chicago Center
07:34AM 41.5408 -90.3042 89° East 408 470 35,000  Level Chicago Center
07:35AM 41.5436 -90.1244 89° East 405 466 35,000  Level Chicago Center
07:36AM 41.5436 -89.9742 90° East 405 466 35,000  Level Chicago Center
07:37AM 41.5192 -89.8192 102° East 425 489 35,000  Level Chicago Center
07:39AM 41.4928 -89.6650 103° East 426 490 35,000  Level Chicago Center
07:40AM 41.4653 -89.5097 103° East 430 495 35,000  Level Chicago Center
07:41AM 41.4394 -89.3561 103° East 425 489 35,000  Level Chicago Center
07:42AM 41.4114 -89.1992 103° East 427 491 35,000  Level Chicago Center
07:43AM 41.3825 -89.0483 104° East 424 488 35,000  Level Chicago Center
07:44AM 41.3556 -88.8969 103° East 424 488 35,000  Level Chicago Center
07:45AM 41.3228 -88.7158 103° East 425 489 35,000  Level Chicago Center
07:46AM 41.2944 -88.5636 104° East 426 490 35,000  Level Chicago Center
07:47AM 41.2669 -88.4122 104° East 427 491 35,000  Level Chicago Center
07:48AM 41.2389 -88.2631 104° East 424 488 35,000  Level Chicago Center
07:49AM 41.2114 -88.1150 104° East 423 487 35,000  Level Chicago Center
07:50AM 41.1769 -87.9361 104° East 425 489 35,000  Level Chicago Center
07:51AM 41.1492 -87.7861 104° East 425 489 35,000  Level Chicago Center
07:52AM 41.1200 -87.6347 104° East 426 490 35,000  Level Chicago Center
07:53AM 41.0906 -87.4833 104° East 429 494 35,000  Level Chicago Center
07:54AM 41.0597 -87.3325 105° East 428 493 35,000  Level Chicago Center
07:55AM 41.0244 -87.1508 104° East 427 491 35,000  Level Chicago Center
07:56AM 40.9936 -87.0011 105° East 425 489 35,000  Level Chicago Center
07:57AM 40.9633 -86.8508 105° East 425 489 35,000  Level Chicago Center
07:58AM 40.9342 -86.7078 105° East 433 498 35,000  Level Chicago Center
07:59AM 40.8969 -86.5236 105° East 435 501 35,000  Level Chicago Center
08:00AM 40.8647 -86.3694 105° East 438 504 35,000  Level Chicago Center
08:01AM 40.8331 -86.2164 105° East 437 503 35,000  Level Chicago Center
08:02AM 40.8003 -86.0611 106° East 441 507 35,000  Level Chicago Center
08:03AM 40.7683 -85.9061 105° East 441 507 35,000  Level Chicago Center
08:04AM 40.7350 -85.7522 106° East 440 506 35,000  Level Chicago Center
08:05AM 40.6958 -85.5647 105° East 443 510 35,000  Level Chicago Center
08:06AM 40.6631 -85.4161 106° East 448 516 35,000  Level Chicago Center
08:07AM 40.6289 -85.2572 106° East 450 518 35,000  Level Chicago Center
08:08AM 40.5950 -85.1000 106° East 448 516 35,000  Level Chicago Center
08:09AM 40.5592 -84.9408 106° East 447 514 35,000  Level Indianapolis Center
08:10AM 40.5261 -84.7867 106° East 449 517 35,000  Level Indianapolis Center
08:11AM 40.4903 -84.6300 107° East 446 513 35,000  Level Indianapolis Center
08:12AM 40.4544 -84.4706 106° East 448 516 35,000  Level Indianapolis Center
08:13AM 40.4181 -84.3128 107° East 448 516 35,000  Level Indianapolis Center
08:14AM 40.3819 -84.1542 107° East 449 517 35,000  Level Indianapolis Center
08:15AM 40.3394 -83.9703 107° East 447 514 35,000  Level Indianapolis Center
08:16AM 40.3031 -83.8114 107° East 448 516 35,000  Level Indianapolis Center
08:17AM 40.2658 -83.6528 107° East 448 516 35,000  Level Indianapolis Center
08:19AM 40.2283 -83.4961 107° East 445 512 35,000  Level Indianapolis Center
08:20AM 40.1917 -83.3389 107° East 443 510 35,000  Level Indianapolis Center
08:21AM 40.1547 -83.1819 107° East 445 512 35,000  Level Indianapolis Center
08:22AM 40.1169 -83.0261 108° East 444 511 35,000  Level Indianapolis Center
08:23AM 40.0800 -82.8739 108° East 434 499 35,000  Level Indianapolis Center
08:24AM 40.0433 -82.7225 108° East 433 498 35,000  Level Indianapolis Center
08:25AM 40.0058 -82.5703 108° East 436 502 35,000  Level Indianapolis Center
08:26AM 39.9697 -82.4183 107° East 435 501 35,000  Level Indianapolis Center
08:27AM 39.9308 -82.2650 108° East 440 506 35,000  Level Indianapolis Center
08:28AM 39.8872 -82.0886 108° East 434 499 35,000  Level Indianapolis Center
08:29AM 39.8492 -81.9361 108° East 439 505 35,000  Level Indianapolis Center
08:30AM 39.8100 -81.7847 109° East 439 505 35,000  Level Indianapolis Center
08:31AM 39.7719 -81.6328 108° East 438 504 35,000  Level Indianapolis Center
08:31AM 39.7625 -81.5822 104° East 429 494 35,000  Level Cleveland Center
08:32AM 39.7242 -81.4333 108° East 429 494 35,000  Level Cleveland Center
08:33AM 39.6856 -81.2817 108° East 429 494 35,000  Level Cleveland Center
08:34AM 39.6469 -81.1331 109° East 429 494 35,000  Level Cleveland Center
08:35AM 39.6131 -81.0183 111° Southeast 442 509 35,000  Level Indianapolis Center
08:36AM 39.5742 -80.8664 108° East 441 507 35,000  Level Indianapolis Center
08:37AM 39.5344 -80.7164 109° East 438 504 35,000  Level Indianapolis Center
08:38AM 39.4944 -80.5658 109° East 441 507 35,000  Level Indianapolis Center
08:39AM 39.4514 -80.3919 108° East 432 497 35,000  Level Washington Center
08:40AM 39.4111 -80.2469 110° East 415 478 35,000 -60 Level Washington Center
08:41AM 39.3708 -80.0994 109° East 420 483 34,900 -1,260 Descending Washington Center
08:42AM 39.3308 -79.9467 109° East 426 490 32,500 -1,980 Descending Washington Center
08:43AM 39.2944 -79.7969 107° East 437 503 31,000 -780 Descending Washington Center
08:44AM 39.2833 -79.6325 95° East 437 503 31,000  Level Washington Center
08:45AM 39.2700 -79.4711 96° East 448 516 31,000 -900 Level Washington Center
08:46AM 39.2561 -79.3094 96° East 453 521 29,200 -1,800 Descending Washington Center
08:47AM 39.2400 -79.1531 98° East 464 534 27,400 -1,500 Descending Washington Center
08:48AM 39.2261 -78.9836 96° East 470 541 26,200 -1,740 Descending Washington Center
08:49AM 39.2100 -78.8194 97° East 470 541 24,000 -2,340 Descending Washington Center
08:50AM 39.1953 -78.6636 97° East 452 520 21,600 -2,280 Descending Washington Center
08:51AM 39.1800 -78.5183 98° East 429 494 19,400 -2,160 Descending Washington Center
08:52AM 39.1667 -78.3811 97° East 402 463 17,400 -1,620 Descending Washington Center
08:53AM 39.1381 -78.2597 107° East 374 430 16,200 -1,080 Descending Washington Center
08:54AM 39.1094 -78.1436 108° East 355 409 15,300 -960 Descending Washington Center
08:55AM 39.0806 -78.0303 108° East 336 387 14,300 -1,080 Descending Washington Center
08:56AM 39.0514 -77.9169 108° East 331 381 13,200 -1,380 Descending Washington Center
08:57AM 39.0222 -77.8067 109° East 326 375 11,600 -1,140 Descending Washington Center
08:58AM 38.9911 -77.6881 109° East 326 375 11,000 -840 Descending Washington Center
08:59AM 38.9667 -77.5667 104° East 312 359 9,900 -1,260 Descending Potomac TRACON
09:00AM 38.9167 -77.4667 123° Southeast 286 329 8,400 -1,440 Descending Potomac TRACON
09:01AM 38.8833 -77.4000 123° Southeast 266 306 7,200 -1,260 Descending Potomac TRACON
09:02AM 38.8500 -77.3167 117° Southeast 253 291 6,100 -600 Descending Potomac TRACON
09:03AM 38.8167 -77.2500 123° Southeast 226 260 6,000 -420 Descending Potomac TRACON
09:04AM 38.8000 -77.1833 108° East 207 238 5,400 -960 Descending Potomac TRACON
09:05AM 38.7667 -77.1333 131° Southeast 189 217 4,200 -720 Descending Potomac TRACON
09:06AM 38.7167 -77.1167 165° South 175 201 4,000 -120 Descending Potomac TRACON
09:07AM 38.6667 -77.1167 180° South 176 203 4,000  Level Potomac TRACON
09:08AM 38.6333 -77.1167 180° South 177 204 4,000  Level Potomac TRACON
09:09AM 38.5833 -77.1167 180° South 177 204 4,000  Level Potomac TRACON
09:10AM 38.5667 -77.0667 113° Southeast 203 234 4,000  Level Potomac TRACON
09:11AM 38.6000 -77.0500 21° North 179 206 4,000 -60 Level Potomac TRACON
09:12AM 38.6500 -77.0333 15° North 180 207 3,900 -600 Descending Potomac TRACON
09:13AM 38.7000 -77.0167 15° North 172 198 2,900 -1,020 Descending Potomac TRACON
09:14AM 38.7500 -77.0333 345° North 174 200 1,900 -1,020 Descending Potomac TRACON